sensor_id;sensor_type;location;lat;lon;timestamp;P1;durP1;ratioP1;P2;durP2;ratioP2
5195;SDS011;2617;51.006;12.436;2024-03-23T00:58:54;24.90;;;15.85;;
5195;SDS011;2617;51.006;12.436;2024-03-23T01:03:57;32.43;;;18.20;;
5195;SDS011;2617;51.006;12.436;2024-03-23T01:09:00;25.73;;;14.77;;
5195;SDS011;2617;51.006;12.436;2024-03-23T01:14:03;30.08;;;19.15;;
5195;SDS011;2617;51.006;12.436;2024-03-23T01:19:05;30.10;;;17.73;;
5195;SDS011;2617;51.006;12.436;2024-03-23T01:24:08;36.80;;;20.03;;
5195;SDS011;2617;51.006;12.436;2024-03-23T01:29:10;42.87;;;23.20;;
5195;SDS011;2617;51.006;12.436;2024-03-23T01:34:12;45.47;;;21.90;;
5195;SDS011;2617;51.006;12.436;2024-03-23T01:39:15;39.65;;;22.13;;
5195;SDS011;2617;51.006;12.436;2024-03-23T01:44:19;45.30;;;23.33;;
5195;SDS011;2617;51.006;12.436;2024-03-23T01:49:21;39.83;;;22.23;;
5195;SDS011;2617;51.006;12.436;2024-03-23T01:54:25;45.53;;;23.67;;
5195;SDS011;2617;51.006;12.436;2024-03-23T01:59:27;44.97;;;23.17;;
5195;SDS011;2617;51.006;12.436;2024-03-23T02:04:30;50.55;;;26.00;;
5195;SDS011;2617;51.006;12.436;2024-03-23T02:09:32;42.07;;;23.57;;
5195;SDS011;2617;51.006;12.436;2024-03-23T02:14:34;42.83;;;23.77;;
5195;SDS011;2617;51.006;12.436;2024-03-23T02:19:37;47.50;;;22.30;;
5195;SDS011;2617;51.006;12.436;2024-03-23T02:24:40;48.60;;;24.75;;
5195;SDS011;2617;51.006;12.436;2024-03-23T02:29:43;47.83;;;25.50;;
5195;SDS011;2617;51.006;12.436;2024-03-23T02:34:45;44.90;;;24.83;;
5195;SDS011;2617;51.006;12.436;2024-03-23T02:39:48;44.37;;;24.30;;
5195;SDS011;2617;51.006;12.436;2024-03-23T02:44:50;50.27;;;24.57;;
5195;SDS011;2617;51.006;12.436;2024-03-23T02:49:53;47.30;;;22.70;;
5195;SDS011;2617;51.006;12.436;2024-03-23T02:54:57;44.00;;;24.63;;
5195;SDS011;2617;51.006;12.436;2024-03-23T02:59:59;42.03;;;23.60;;
5195;SDS011;2617;51.006;12.436;2024-03-23T03:05:01;43.67;;;22.23;;
5195;SDS011;2617;51.006;12.436;2024-03-23T03:10:05;45.63;;;24.20;;
5195;SDS011;2617;51.006;12.436;2024-03-23T03:15:08;42.37;;;23.23;;
5195;SDS011;2617;51.006;12.436;2024-03-23T03:20:11;46.90;;;25.77;;
5195;SDS011;2617;51.006;12.436;2024-03-23T03:25:13;42.47;;;22.90;;
5195;SDS011;2617;51.006;12.436;2024-03-23T03:30:16;47.27;;;25.43;;
5195;SDS011;2617;51.006;12.436;2024-03-23T03:35:19;54.72;;;25.20;;
5195;SDS011;2617;51.006;12.436;2024-03-23T03:40:21;48.47;;;23.10;;
5195;SDS011;2617;51.006;12.436;2024-03-23T03:45:25;48.30;;;25.50;;
5195;SDS011;2617;51.006;12.436;2024-03-23T03:50:27;45.37;;;22.53;;
5195;SDS011;2617;51.006;12.436;2024-03-23T03:55:30;41.30;;;23.13;;
5195;SDS011;2617;51.006;12.436;2024-03-23T04:00:32;46.87;;;23.87;;
5195;SDS011;2617;51.006;12.436;2024-03-23T04:05:35;46.53;;;23.07;;
5195;SDS011;2617;51.006;12.436;2024-03-23T04:10:37;40.30;;;22.37;;
5195;SDS011;2617;51.006;12.436;2024-03-23T04:15:40;45.70;;;22.50;;
5195;SDS011;2617;51.006;12.436;2024-03-23T04:20:42;39.47;;;21.80;;
5195;SDS011;2617;51.006;12.436;2024-03-23T04:25:45;42.40;;;21.67;;
5195;SDS011;2617;51.006;12.436;2024-03-23T04:30:47;37.50;;;20.93;;
5195;SDS011;2617;51.006;12.436;2024-03-23T04:35:50;36.92;;;20.65;;
5195;SDS011;2617;51.006;12.436;2024-03-23T04:40:55;43.27;;;20.70;;
5195;SDS011;2617;51.006;12.436;2024-03-23T04:45:58;39.05;;;20.25;;
5195;SDS011;2617;51.006;12.436;2024-03-23T04:51:01;38.83;;;19.43;;
5195;SDS011;2617;51.006;12.436;2024-03-23T04:56:03;35.87;;;19.70;;
5195;SDS011;2617;51.006;12.436;2024-03-23T05:01:07;38.27;;;20.27;;
5195;SDS011;2617;51.006;12.436;2024-03-23T05:06:09;45.37;;;20.60;;
5195;SDS011;2617;51.006;12.436;2024-03-23T05:11:12;34.75;;;19.50;;
5195;SDS011;2617;51.006;12.436;2024-03-23T05:16:16;39.73;;;21.37;;
5195;SDS011;2617;51.006;12.436;2024-03-23T05:21:18;41.43;;;20.97;;
5195;SDS011;2617;51.006;12.436;2024-03-23T05:26:21;41.75;;;20.35;;
5195;SDS011;2617;51.006;12.436;2024-03-23T05:31:25;43.13;;;20.40;;
5195;SDS011;2617;51.006;12.436;2024-03-23T05:36:28;40.00;;;20.50;;
5195;SDS011;2617;51.006;12.436;2024-03-23T05:41:30;36.45;;;19.10;;
5195;SDS011;2617;51.006;12.436;2024-03-23T05:46:33;40.03;;;19.47;;
5195;SDS011;2617;51.006;12.436;2024-03-23T05:51:36;34.40;;;18.97;;
5195;SDS011;2617;51.006;12.436;2024-03-23T05:56:38;40.20;;;19.37;;
5195;SDS011;2617;51.006;12.436;2024-03-23T06:01:41;45.70;;;22.10;;
5195;SDS011;2617;51.006;12.436;2024-03-23T06:06:43;38.07;;;19.77;;
5195;SDS011;2617;51.006;12.436;2024-03-23T06:11:46;40.87;;;20.40;;
5195;SDS011;2617;51.006;12.436;2024-03-23T06:16:49;39.57;;;19.50;;
5195;SDS011;2617;51.006;12.436;2024-03-23T06:21:51;49.27;;;21.60;;
5195;SDS011;2617;51.006;12.436;2024-03-23T06:26:54;45.90;;;21.17;;
5195;SDS011;2617;51.006;12.436;2024-03-23T06:31:56;39.60;;;20.20;;
5195;SDS011;2617;51.006;12.436;2024-03-23T06:36:59;43.10;;;19.55;;
5195;SDS011;2617;51.006;12.436;2024-03-23T06:42:01;36.10;;;18.93;;
5195;SDS011;2617;51.006;12.436;2024-03-23T06:47:04;36.53;;;19.23;;
5195;SDS011;2617;51.006;12.436;2024-03-23T06:52:07;42.30;;;21.63;;
5195;SDS011;2617;51.006;12.436;2024-03-23T06:57:10;40.20;;;20.00;;
5195;SDS011;2617;51.006;12.436;2024-03-23T07:02:13;38.53;;;19.87;;
5195;SDS011;2617;51.006;12.436;2024-03-23T07:07:16;35.15;;;18.25;;
5195;SDS011;2617;51.006;12.436;2024-03-23T07:12:19;36.07;;;18.50;;
5195;SDS011;2617;51.006;12.436;2024-03-23T07:17:21;36.27;;;18.17;;
5195;SDS011;2617;51.006;12.436;2024-03-23T07:22:25;32.00;;;16.67;;
5195;SDS011;2617;51.006;12.436;2024-03-23T07:27:27;28.00;;;18.50;;
5195;SDS011;2617;51.006;12.436;2024-03-23T07:32:30;33.67;;;18.02;;
5195;SDS011;2617;51.006;12.436;2024-03-23T07:37:32;31.10;;;18.00;;
5195;SDS011;2617;51.006;12.436;2024-03-23T07:42:35;30.33;;;18.63;;
5195;SDS011;2617;51.006;12.436;2024-03-23T07:47:38;26.50;;;16.33;;
5195;SDS011;2617;51.006;12.436;2024-03-23T07:52:40;27.70;;;16.40;;
5195;SDS011;2617;51.006;12.436;2024-03-23T07:57:43;22.97;;;15.93;;
5195;SDS011;2617;51.006;12.436;2024-03-23T08:02:45;23.73;;;14.80;;
5195;SDS011;2617;51.006;12.436;2024-03-23T08:07:50;27.93;;;16.83;;
5195;SDS011;2617;51.006;12.436;2024-03-23T08:12:50;13.60;;;6.93;;
5195;SDS011;2617;51.006;12.436;2024-03-23T08:17:53;5.87;;;1.92;;
5195;SDS011;2617;51.006;12.436;2024-03-23T08:22:56;1.83;;;0.83;;
5195;SDS011;2617;51.006;12.436;2024-03-23T08:27:58;0.80;;;0.80;;
5195;SDS011;2617;51.006;12.436;2024-03-23T08:33:01;3.17;;;1.33;;
5195;SDS011;2617;51.006;12.436;2024-03-23T08:38:04;1.30;;;0.60;;
5195;SDS011;2617;51.006;12.436;2024-03-23T08:43:07;0.67;;;0.67;;
5195;SDS011;2617;51.006;12.436;2024-03-23T08:48:10;1.57;;;0.63;;
5195;SDS011;2617;51.006;12.436;2024-03-23T08:53:12;10.60;;;0.80;;
5195;SDS011;2617;51.006;12.436;2024-03-23T08:58:15;1.33;;;0.60;;
5195;SDS011;2617;51.006;12.436;2024-03-23T09:03:18;0.93;;;0.70;;
5195;SDS011;2617;51.006;12.436;2024-03-23T09:08:21;2.93;;;0.70;;
5195;SDS011;2617;51.006;12.436;2024-03-23T09:13:23;1.60;;;0.60;;
5195;SDS011;2617;51.006;12.436;2024-03-23T09:18:25;0.93;;;0.80;;
5195;SDS011;2617;51.006;12.436;2024-03-23T09:23:29;0.85;;;0.70;;
5195;SDS011;2617;51.006;12.436;2024-03-23T09:28:31;0.90;;;0.90;;
5195;SDS011;2617;51.006;12.436;2024-03-23T09:33:34;0.80;;;0.80;;
5195;SDS011;2617;51.006;12.436;2024-03-23T09:38:36;2.40;;;2.30;;
5195;SDS011;2617;51.006;12.436;2024-03-23T09:43:39;4.50;;;3.80;;
5195;SDS011;2617;51.006;12.436;2024-03-23T09:48:42;4.57;;;3.20;;
5195;SDS011;2617;51.006;12.436;2024-03-23T09:53:44;5.27;;;4.13;;
5195;SDS011;2617;51.006;12.436;2024-03-23T09:58:47;4.60;;;4.17;;
5195;SDS011;2617;51.006;12.436;2024-03-23T10:03:49;4.70;;;4.13;;
5195;SDS011;2617;51.006;12.436;2024-03-23T10:08:53;2.70;;;1.73;;
5195;SDS011;2617;51.006;12.436;2024-03-23T10:13:55;1.45;;;1.35;;
5195;SDS011;2617;51.006;12.436;2024-03-23T10:18:58;1.20;;;1.20;;
5195;SDS011;2617;51.006;12.436;2024-03-23T10:24:07;1.20;;;1.10;;
5195;SDS011;2617;51.006;12.436;2024-03-23T10:29:04;1.80;;;1.58;;
5195;SDS011;2617;51.006;12.436;2024-03-23T10:34:07;1.60;;;1.50;;
5195;SDS011;2617;51.006;12.436;2024-03-23T10:39:09;1.60;;;1.50;;
5195;SDS011;2617;51.006;12.436;2024-03-23T10:44:11;1.20;;;1.20;;
5195;SDS011;2617;51.006;12.436;2024-03-23T10:49:15;0.93;;;0.93;;
5195;SDS011;2617;51.006;12.436;2024-03-23T10:54:17;1.20;;;1.10;;
5195;SDS011;2617;51.006;12.436;2024-03-23T10:59:19;0.70;;;0.70;;
5195;SDS011;2617;51.006;12.436;2024-03-23T11:09:38;0.60;;;0.60;;
5195;SDS011;2617;51.006;12.436;2024-03-23T11:14:40;1.90;;;1.60;;
5195;SDS011;2617;51.006;12.436;2024-03-23T11:19:42;1.23;;;1.13;;
5195;SDS011;2617;51.006;12.436;2024-03-23T11:24:49;2.20;;;1.57;;
5195;SDS011;2617;51.006;12.436;2024-03-23T11:29:47;2.23;;;2.13;;
5195;SDS011;2617;51.006;12.436;2024-03-23T11:34:50;1.70;;;1.60;;
5195;SDS011;2617;51.006;12.436;2024-03-23T11:39:54;0.90;;;0.90;;
5195;SDS011;2617;51.006;12.436;2024-03-23T11:44:56;0.82;;;0.82;;
5195;SDS011;2617;51.006;12.436;2024-03-23T11:50:00;0.70;;;0.70;;
5195;SDS011;2617;51.006;12.436;2024-03-23T11:55:03;0.98;;;0.98;;
5195;SDS011;2617;51.006;12.436;2024-03-23T12:00:20;0.97;;;0.60;;
5195;SDS011;2617;51.006;12.436;2024-03-23T12:05:25;0.50;;;0.50;;
5195;SDS011;2617;51.006;12.436;2024-03-23T12:10:26;0.50;;;0.50;;
5195;SDS011;2617;51.006;12.436;2024-03-23T12:15:29;0.77;;;0.77;;
5195;SDS011;2617;51.006;12.436;2024-03-23T12:20:31;0.70;;;0.70;;
5195;SDS011;2617;51.006;12.436;2024-03-23T12:25:35;1.63;;;1.00;;
5195;SDS011;2617;51.006;12.436;2024-03-23T12:30:38;1.75;;;1.55;;
5195;SDS011;2617;51.006;12.436;2024-03-23T12:35:42;1.27;;;1.00;;
5195;SDS011;2617;51.006;12.436;2024-03-23T12:40:47;1.10;;;1.00;;
5195;SDS011;2617;51.006;12.436;2024-03-23T12:45:50;1.13;;;1.00;;
5195;SDS011;2617;51.006;12.436;2024-03-23T12:50:54;1.40;;;1.10;;
5195;SDS011;2617;51.006;12.436;2024-03-23T12:55:58;2.10;;;1.60;;
5195;SDS011;2617;51.006;12.436;2024-03-23T13:01:01;3.08;;;1.77;;
5195;SDS011;2617;51.006;12.436;2024-03-23T13:06:04;3.47;;;1.90;;
5195;SDS011;2617;51.006;12.436;2024-03-23T13:11:07;1.90;;;1.48;;
5195;SDS011;2617;51.006;12.436;2024-03-23T13:16:10;5.07;;;2.60;;
5195;SDS011;2617;51.006;12.436;2024-03-23T13:21:12;10.90;;;2.57;;
5195;SDS011;2617;51.006;12.436;2024-03-23T13:26:15;3.60;;;1.67;;
5195;SDS011;2617;51.006;12.436;2024-03-23T13:31:17;5.50;;;1.80;;
5195;SDS011;2617;51.006;12.436;2024-03-23T13:36:21;4.93;;;1.50;;
5195;SDS011;2617;51.006;12.436;2024-03-23T13:41:23;2.30;;;1.67;;
5195;SDS011;2617;51.006;12.436;2024-03-23T13:46:26;5.24;;;2.84;;
5195;SDS011;2617;51.006;12.436;2024-03-23T13:51:28;4.60;;;2.50;;
5195;SDS011;2617;51.006;12.436;2024-03-23T13:56:30;5.77;;;2.30;;
5195;SDS011;2617;51.006;12.436;2024-03-23T14:01:33;4.43;;;2.47;;
5195;SDS011;2617;51.006;12.436;2024-03-23T14:06:35;2.57;;;2.20;;
5195;SDS011;2617;51.006;12.436;2024-03-23T14:11:38;4.57;;;2.87;;
5195;SDS011;2617;51.006;12.436;2024-03-23T14:16:41;3.50;;;2.60;;
5195;SDS011;2617;51.006;12.436;2024-03-23T14:21:43;4.57;;;2.30;;
5195;SDS011;2617;51.006;12.436;2024-03-23T14:26:46;5.20;;;2.40;;
5195;SDS011;2617;51.006;12.436;2024-03-23T14:31:48;2.58;;;1.98;;
5195;SDS011;2617;51.006;12.436;2024-03-23T14:36:51;5.43;;;2.35;;
5195;SDS011;2617;51.006;12.436;2024-03-23T14:41:54;2.30;;;1.87;;
5195;SDS011;2617;51.006;12.436;2024-03-23T14:46:57;3.03;;;1.60;;
5195;SDS011;2617;51.006;12.436;2024-03-23T14:51:59;4.37;;;2.00;;
5195;SDS011;2617;51.006;12.436;2024-03-23T14:57:02;6.67;;;1.90;;
5195;SDS011;2617;51.006;12.436;2024-03-23T15:02:04;5.33;;;2.17;;
5195;SDS011;2617;51.006;12.436;2024-03-23T15:07:08;5.57;;;1.90;;
5195;SDS011;2617;51.006;12.436;2024-03-23T15:12:10;2.08;;;1.65;;
5195;SDS011;2617;51.006;12.436;2024-03-23T15:17:12;1.20;;;1.10;;
5195;SDS011;2617;51.006;12.436;2024-03-23T15:22:15;3.20;;;1.33;;
5195;SDS011;2617;51.006;12.436;2024-03-23T15:27:17;2.00;;;1.80;;
5195;SDS011;2617;51.006;12.436;2024-03-23T15:32:20;1.60;;;1.50;;
5195;SDS011;2617;51.006;12.436;2024-03-23T15:37:22;2.95;;;1.33;;
5195;SDS011;2617;51.006;12.436;2024-03-23T15:42:25;2.10;;;1.90;;
5195;SDS011;2617;51.006;12.436;2024-03-23T15:47:28;2.72;;;1.70;;
5195;SDS011;2617;51.006;12.436;2024-03-23T15:52:30;4.30;;;1.40;;
5195;SDS011;2617;51.006;12.436;2024-03-23T15:57:33;1.40;;;1.40;;
5195;SDS011;2617;51.006;12.436;2024-03-23T16:02:35;3.30;;;1.70;;
5195;SDS011;2617;51.006;12.436;2024-03-23T16:07:38;3.77;;;2.40;;
5195;SDS011;2617;51.006;12.436;2024-03-23T16:12:41;1.67;;;1.57;;
5195;SDS011;2617;51.006;12.436;2024-03-23T16:17:43;1.87;;;1.43;;
5195;SDS011;2617;51.006;12.436;2024-03-23T16:22:46;2.90;;;1.10;;
5195;SDS011;2617;51.006;12.436;2024-03-23T16:27:49;1.73;;;1.50;;
5195;SDS011;2617;51.006;12.436;2024-03-23T16:32:52;1.40;;;1.30;;
5195;SDS011;2617;51.006;12.436;2024-03-23T16:37:54;40.17;;;21.30;;
5195;SDS011;2617;51.006;12.436;2024-03-23T16:42:56;53.60;;;33.90;;
5195;SDS011;2617;51.006;12.436;2024-03-23T16:47:59;4.40;;;2.25;;
5195;SDS011;2617;51.006;12.436;2024-03-23T16:53:01;2.15;;;1.62;;
5195;SDS011;2617;51.006;12.436;2024-03-23T16:58:04;3.70;;;3.00;;
5195;SDS011;2617;51.006;12.436;2024-03-23T17:03:07;2.20;;;1.63;;
5195;SDS011;2617;51.006;12.436;2024-03-23T17:08:09;7.50;;;5.20;;
5195;SDS011;2617;51.006;12.436;2024-03-23T17:13:12;9.13;;;2.30;;
5195;SDS011;2617;51.006;12.436;2024-03-23T17:18:14;11.40;;;5.70;;
5195;SDS011;2617;51.006;12.436;2024-03-23T17:23:24;4.77;;;2.80;;
5195;SDS011;2617;51.006;12.436;2024-03-23T17:28:27;40.77;;;22.43;;
5195;SDS011;2617;51.006;12.436;2024-03-23T17:33:30;2.40;;;1.73;;
5195;SDS011;2617;51.006;12.436;2024-03-23T17:38:33;7.03;;;1.93;;
5195;SDS011;2617;51.006;12.436;2024-03-23T17:43:34;1.93;;;1.70;;
5195;SDS011;2617;51.006;12.436;2024-03-23T17:48:38;1.00;;;1.00;;
5195;SDS011;2617;51.006;12.436;2024-03-23T17:53:40;2.37;;;1.42;;
5195;SDS011;2617;51.006;12.436;2024-03-23T17:58:47;2.07;;;1.50;;
5195;SDS011;2617;51.006;12.436;2024-03-23T18:03:46;1.90;;;1.10;;
5195;SDS011;2617;51.006;12.436;2024-03-23T18:08:48;1.90;;;1.30;;
5195;SDS011;2617;51.006;12.436;2024-03-23T18:13:51;2.10;;;1.67;;
5195;SDS011;2617;51.006;12.436;2024-03-23T18:18:54;2.28;;;1.60;;
5195;SDS011;2617;51.006;12.436;2024-03-23T18:23:56;2.60;;;2.20;;
5195;SDS011;2617;51.006;12.436;2024-03-23T18:28:59;6.25;;;2.40;;
5195;SDS011;2617;51.006;12.436;2024-03-23T18:34:01;3.90;;;2.83;;
5195;SDS011;2617;51.006;12.436;2024-03-23T18:39:04;3.00;;;2.20;;
5195;SDS011;2617;51.006;12.436;2024-03-23T18:44:08;5.18;;;3.45;;
5195;SDS011;2617;51.006;12.436;2024-03-23T18:49:09;2.47;;;1.93;;
5195;SDS011;2617;51.006;12.436;2024-03-23T18:54:12;3.93;;;2.10;;
5195;SDS011;2617;51.006;12.436;2024-03-23T18:59:14;1.73;;;1.45;;
5195;SDS011;2617;51.006;12.436;2024-03-23T19:04:17;2.57;;;1.57;;
5195;SDS011;2617;51.006;12.436;2024-03-23T19:09:20;2.10;;;1.83;;
5195;SDS011;2617;51.006;12.436;2024-03-23T19:14:22;2.00;;;1.90;;
5195;SDS011;2617;51.006;12.436;2024-03-23T19:19:25;1.40;;;1.30;;
5195;SDS011;2617;51.006;12.436;2024-03-23T19:24:28;2.23;;;2.00;;
5195;SDS011;2617;51.006;12.436;2024-03-23T19:29:30;1.87;;;1.50;;
5195;SDS011;2617;51.006;12.436;2024-03-23T19:34:33;1.80;;;1.70;;
5195;SDS011;2617;51.006;12.436;2024-03-23T19:39:35;2.77;;;2.10;;
5195;SDS011;2617;51.006;12.436;2024-03-23T19:44:38;2.63;;;1.87;;
5195;SDS011;2617;51.006;12.436;2024-03-23T19:49:40;2.10;;;1.90;;
5195;SDS011;2617;51.006;12.436;2024-03-23T19:54:43;1.47;;;1.47;;
5195;SDS011;2617;51.006;12.436;2024-03-23T19:59:45;3.40;;;2.17;;
5195;SDS011;2617;51.006;12.436;2024-03-23T20:04:48;2.63;;;1.97;;
5195;SDS011;2617;51.006;12.436;2024-03-23T20:09:50;2.13;;;1.80;;
5195;SDS011;2617;51.006;12.436;2024-03-23T20:14:53;3.50;;;1.95;;
5195;SDS011;2617;51.006;12.436;2024-03-23T20:19:56;3.45;;;1.80;;
5195;SDS011;2617;51.006;12.436;2024-03-23T20:24:59;1.17;;;1.17;;
5195;SDS011;2617;51.006;12.436;2024-03-23T20:30:03;2.90;;;1.80;;
5195;SDS011;2617;51.006;12.436;2024-03-23T20:35:06;1.30;;;1.20;;
5195;SDS011;2617;51.006;12.436;2024-03-23T20:40:08;3.45;;;1.48;;
5195;SDS011;2617;51.006;12.436;2024-03-23T20:45:11;1.93;;;1.63;;
5195;SDS011;2617;51.006;12.436;2024-03-23T20:50:14;3.47;;;1.33;;
5195;SDS011;2617;51.006;12.436;2024-03-23T20:55:17;1.57;;;1.50;;
5195;SDS011;2617;51.006;12.436;2024-03-23T21:00:19;1.20;;;1.20;;
5195;SDS011;2617;51.006;12.436;2024-03-23T21:05:22;1.10;;;1.00;;
5195;SDS011;2617;51.006;12.436;2024-03-23T21:10:26;3.10;;;1.67;;
5195;SDS011;2617;51.006;12.436;2024-03-23T21:15:28;1.50;;;1.00;;
5195;SDS011;2617;51.006;12.436;2024-03-23T21:20:31;2.15;;;2.05;;
5195;SDS011;2617;51.006;12.436;2024-03-23T21:25:33;1.10;;;1.10;;
5195;SDS011;2617;51.006;12.436;2024-03-23T21:30:35;2.97;;;1.20;;
5195;SDS011;2617;51.006;12.436;2024-03-23T21:35:38;2.25;;;1.23;;
5195;SDS011;2617;51.006;12.436;2024-03-23T21:40:40;1.45;;;1.23;;
5195;SDS011;2617;51.006;12.436;2024-03-23T21:45:51;1.20;;;1.10;;
5195;SDS011;2617;51.006;12.436;2024-03-23T21:50:46;2.47;;;1.30;;
5195;SDS011;2617;51.006;12.436;2024-03-23T21:55:50;1.30;;;1.20;;
5195;SDS011;2617;51.006;12.436;2024-03-23T22:00:52;3.07;;;2.40;;
5195;SDS011;2617;51.006;12.436;2024-03-23T22:05:54;1.13;;;1.10;;
5195;SDS011;2617;51.006;12.436;2024-03-23T22:10:57;1.30;;;1.30;;
5195;SDS011;2617;51.006;12.436;2024-03-23T22:16:00;1.80;;;1.70;;
5195;SDS011;2617;51.006;12.436;2024-03-23T22:21:02;1.90;;;1.80;;
5195;SDS011;2617;51.006;12.436;2024-03-23T22:26:05;2.20;;;2.10;;
5195;SDS011;2617;51.006;12.436;2024-03-23T22:31:07;18.60;;;10.15;;
5195;SDS011;2617;51.006;12.436;2024-03-23T22:36:09;2.07;;;1.97;;
5195;SDS011;2617;51.006;12.436;2024-03-23T22:41:13;1.87;;;1.75;;
5195;SDS011;2617;51.006;12.436;2024-03-23T22:46:15;2.90;;;2.10;;
5195;SDS011;2617;51.006;12.436;2024-03-23T22:51:18;3.43;;;1.30;;
5195;SDS011;2617;51.006;12.436;2024-03-23T22:56:20;3.13;;;1.67;;
5195;SDS011;2617;51.006;12.436;2024-03-23T23:01:22;4.00;;;1.50;;
5195;SDS011;2617;51.006;12.436;2024-03-23T23:06:25;1.70;;;1.60;;
5195;SDS011;2617;51.006;12.436;2024-03-23T23:11:27;1.55;;;1.45;;
5195;SDS011;2617;51.006;12.436;2024-03-23T23:16:30;1.63;;;1.53;;
5195;SDS011;2617;51.006;12.436;2024-03-23T23:21:32;1.60;;;1.50;;
5195;SDS011;2617;51.006;12.436;2024-03-23T23:26:35;2.47;;;1.77;;
5195;SDS011;2617;51.006;12.436;2024-03-23T23:31:37;1.53;;;1.40;;
5195;SDS011;2617;51.006;12.436;2024-03-23T23:36:40;1.30;;;1.23;;
5195;SDS011;2617;51.006;12.436;2024-03-23T23:41:43;1.43;;;1.33;;
5195;SDS011;2617;51.006;12.436;2024-03-23T23:46:45;1.30;;;1.20;;
5195;SDS011;2617;51.006;12.436;2024-03-23T23:51:47;1.67;;;1.27;;
5195;SDS011;2617;51.006;12.436;2024-03-23T23:56:50;1.37;;;1.27;;
